Time;durP1;ratioP1;P1;durP2;ratioP2;P2;SDS_P1;SDS_P2;PMS_P1;PMS_P2;Temp;Humidity;BMP_temperature;BMP_pressure;BME280_temperature;BME280_humidity;BME280_pressure;Samples;Min_cycle;Max_cycle;Signal;HPM_P1;HPM_P2
2022/06/06 00:00:59;;;;;;;;;;;;;;;17.01;77.38;99921.41;1086293;39;20368;-75
2022/06/06 00:02:06;;;;;;;;;;;;;;;17.04;77.21;99921.03;1085826;54;19958;-77
2022/06/06 00:03:08;;;;;;;;;;;;;;;17.00;77.54;99923.25;1085358;54;19951;-75
2022/06/06 00:04:12;;;;;;;;;;;;;;;17.03;77.40;99923.91;1085149;54;19946;-75
2022/06/06 00:05:14;;;;;;;;;;;;;;;16.94;77.93;99921.31;1085606;54;19962;-75
2022/06/06 00:06:20;;;;;;;;;;;;;;;16.93;77.99;99924.19;1086283;39;20340;-78
2022/06/06 00:07:21;;;;;;;;;;;;;;;16.93;77.77;99925.03;1084757;54;19985;-79
2022/06/06 00:08:25;;;;;;;;;;;;;;;16.96;77.79;99934.63;1084916;54;20038;-80
2022/06/06 00:09:27;;;;;;;;;;;;;;;16.98;77.59;99927.16;1085650;54;19975;-80
2022/06/06 00:10:31;;;;;;;;;;;;;;;16.97;77.87;99926.34;1085565;54;19973;-79
2022/06/06 00:11:32;;;;;;;;;;;;;;;16.94;77.98;99926.72;1086912;54;19939;-78
2022/06/06 00:12:36;;;;;;;;;;;;;;;16.97;77.66;99925.50;1085814;54;19946;-80
2022/06/06 00:13:38;;;;;;;;;;;;;;;16.95;77.84;99917.59;1085778;54;19947;-79
2022/06/06 00:14:42;;;;;;;;;;;;;;;17.02;77.61;99928.47;1086395;54;19958;-76
2022/06/06 00:15:43;;;;;;;;;;;;;;;17.05;77.31;99919.16;1084928;54;19998;-78
2022/06/06 00:16:47;;;;;;;;;;;;;;;17.12;77.23;99920.06;1085351;47;19954;-77
2022/06/06 00:17:51;;;;;;;;;;;;;;;17.18;77.23;99910.34;1085253;39;20332;-78
2022/06/06 00:18:55;;;;;;;;;;;;;;;17.17;76.82;99912.25;1085724;54;20112;-77
2022/06/06 00:19:58;;;;;;;;;;;;;;;17.16;77.11;99907.84;1086810;39;20800;-76
2022/06/06 00:21:00;;;;;;;;;;;;;;;17.19;76.71;99914.72;1085209;54;19950;-80
2022/06/06 00:22:04;;;;;;;;;;;;;;;17.11;77.08;99910.28;1085236;54;19969;-81
2022/06/06 00:23:05;;;;;;;;;;;;;;;17.10;77.33;99908.59;1085336;54;19947;-81
2022/06/06 00:24:10;;;;;;;;;;;;;;;17.09;77.25;99907.78;1084981;54;20469;-78
2022/06/06 00:25:11;;;;;;;;;;;;;;;17.20;76.85;99906.44;1085325;54;20663;-79
2022/06/06 00:26:17;;;;;;;;;;;;;;;17.15;77.01;99911.59;1086328;47;19939;-80
2022/06/06 00:27:18;;;;;;;;;;;;;;;17.21;76.74;99912.69;1086249;54;19957;-81
2022/06/06 00:28:21;;;;;;;;;;;;;;;17.25;76.51;99904.00;1085989;54;19974;-79
2022/06/06 00:29:23;;;;;;;;;;;;;;;17.27;76.68;99912.75;1086240;54;19939;-78
2022/06/06 00:30:27;;;;;;;;;;;;;;;17.25;76.43;99913.97;1086374;54;20453;-78
2022/06/06 00:35:20;;;;;;;;;;;;;;;17.26;76.79;99911.09;1086028;54;19939;-80
2022/06/06 00:36:24;;;;;;;;;;;;;;;17.23;76.78;99916.84;1085639;54;19962;-77
2022/06/06 00:37:29;;;;;;;;;;;;;;;17.25;76.98;99906.72;1085798;54;19946;-82
2022/06/06 00:38:30;;;;;;;;;;;;;;;17.34;76.72;99915.50;1085913;54;20483;-78
2022/06/06 00:39:34;;;;;;;;;;;;;;;17.21;76.98;99909.97;1085385;54;19950;-80
2022/06/06 00:40:38;;;;;;;;;;;;;;;17.24;77.25;99909.63;1085658;54;19957;-81
2022/06/06 00:41:39;;;;;;;;;;;;;;;17.28;77.08;99908.19;1084236;54;19968;-75
2022/06/06 00:42:43;;;;;;;;;;;;;;;17.28;77.00;99913.59;1084932;39;20326;-77
2022/06/06 00:43:45;;;;;;;;;;;;;;;17.25;77.01;99905.84;1084924;54;20042;-78
2022/06/06 00:44:49;;;;;;;;;;;;;;;17.26;77.05;99908.38;1085041;54;19947;-77
2022/06/06 00:45:54;;;;;;;;;;;;;;;17.26;76.65;99911.09;1085580;54;19970;-78
2022/06/06 00:47:00;;;;;;;;;;;;;;;17.27;77.06;99912.75;1084889;54;20046;-79
2022/06/06 00:48:23;;;;;;;;;;;;;;;17.37;76.53;99909.72;1085243;54;20425;-77
2022/06/06 00:49:28;;;;;;;;;;;;;;;17.38;76.33;99900.59;1086099;54;19954;-77
2022/06/06 00:50:36;;;;;;;;;;;;;;;17.38;76.54;99906.00;1086261;54;19948;-79
2022/06/06 00:51:38;;;;;;;;;;;;;;;17.40;76.13;99908.50;1086665;54;19973;-79
2022/06/06 00:52:43;;;;;;;;;;;;;;;17.44;76.25;99907.09;1086490;54;19954;-77
2022/06/06 00:53:49;;;;;;;;;;;;;;;17.47;75.83;99904.03;1086519;54;19973;-80
2022/06/06 00:54:51;;;;;;;;;;;;;;;17.51;75.74;99899.06;1086553;54;20548;-79
2022/06/06 00:55:59;;;;;;;;;;;;;;;17.48;75.83;99900.25;1086239;54;19977;-77
2022/06/06 00:57:02;;;;;;;;;;;;;;;17.48;75.93;99900.25;1086276;54;19950;-78
2022/06/06 00:58:08;;;;;;;;;;;;;;;17.51;75.83;99899.88;1085105;54;19950;-78
2022/06/06 00:59:12;;;;;;;;;;;;;;;17.52;75.79;99896.16;1085623;54;19966;-76
2022/06/06 01:00:18;;;;;;;;;;;;;;;17.52;75.63;99909.66;1085982;54;19974;-81
2022/06/06 01:01:22;;;;;;;;;;;;;;;17.52;75.67;99898.84;1086017;54;19939;-77
2022/06/06 01:02:23;;;;;;;;;;;;;;;17.52;75.71;99901.56;1085928;54;20041;-79
2022/06/06 01:03:28;;;;;;;;;;;;;;;17.53;75.84;99897.81;1086697;54;19947;-79
2022/06/06 01:04:33;;;;;;;;;;;;;;;17.53;75.63;99895.13;1086752;54;19951;-75
2022/06/06 01:05:37;;;;;;;;;;;;;;;17.55;75.57;99895.78;1087403;54;19945;-78
2022/06/06 01:06:41;;;;;;;;;;;;;;;17.53;76.07;99897.81;1086893;54;19950;-75
2022/06/06 01:07:45;;;;;;;;;;;;;;;17.45;76.02;99896.09;1088105;54;19930;-75
2022/06/06 01:08:47;;;;;;;;;;;;;;;17.40;76.45;99895.00;1088281;54;19950;-75
2022/06/06 01:09:51;;;;;;;;;;;;;;;17.37;76.53;99896.22;1088105;54;19946;-75
2022/06/06 01:10:52;;;;;;;;;;;;;;;17.38;76.27;99889.78;1086806;54;19951;-76
2022/06/06 01:12:05;;;;;;;;;;;;;;;17.36;76.54;99897.25;1085039;54;19953;-78
2022/06/06 01:13:08;;;;;;;;;;;;;;;17.33;76.45;99886.00;1085439;54;19951;-78
2022/06/06 01:14:13;;;;;;;;;;;;;;;17.34;76.36;99893.06;1086228;54;19950;-78
2022/06/06 01:15:16;;;;;;;;;;;;;;;17.25;77.07;99889.66;1086618;54;20438;-82
2022/06/06 01:16:35;;;;;;;;;;;;;;;17.26;76.78;99889.47;1087049;54;19946;-78
2022/06/06 01:17:41;;;;;;;;;;;;;;;17.21;77.55;99888.38;1086405;54;19973;-79
2022/06/06 01:18:51;;;;;;;;;;;;;;;17.23;77.48;99897.13;1086424;54;19943;-77
2022/06/06 01:20:02;;;;;;;;;;;;;;;17.27;77.06;99893.00;1085128;54;19950;-77
2022/06/06 01:21:34;;;;;;;;;;;;;;;17.31;76.87;99884.31;1086805;39;20345;-76
2022/06/06 01:23:00;;;;;;;;;;;;;;;17.29;77.06;99891.78;1085091;54;20002;-77
2022/06/06 01:24:15;;;;;;;;;;;;;;;17.29;76.97;99886.38;1085516;54;19947;-74
2022/06/06 01:25:31;;;;;;;;;;;;;;;17.24;77.14;99882.59;1085583;54;19950;-75
2022/06/06 01:26:44;;;;;;;;;;;;;;;17.30;76.68;99882.63;1085242;54;20010;-76
2022/06/06 01:27:51;;;;;;;;;;;;;;;17.23;77.06;99879.03;1085055;54;19955;-76
2022/06/06 01:29:02;;;;;;;;;;;;;;;17.21;77.25;99878.41;1085792;39;20387;-76
2022/06/06 01:30:05;;;;;;;;;;;;;;;17.18;77.43;99884.19;1084686;54;19950;-75
2022/06/06 01:31:12;;;;;;;;;;;;;;;17.26;77.29;99881.38;1084731;54;19957;-76
2022/06/06 01:32:15;;;;;;;;;;;;;;;17.29;76.85;99878.25;1085022;54;19973;-75
2022/06/06 01:33:19;;;;;;;;;;;;;;;17.22;77.22;99885.47;1085119;54;19950;-75
2022/06/06 01:34:21;;;;;;;;;;;;;;;17.23;77.49;99870.94;1085298;54;20301;-77
2022/06/06 01:35:27;;;;;;;;;;;;;;;17.28;77.28;99879.31;1086760;39;20356;-76
2022/06/06 01:36:30;;;;;;;;;;;;;;;17.23;77.08;99870.94;1085209;54;20512;-76
2022/06/06 01:37:36;;;;;;;;;;;;;;;17.13;77.38;99873.97;1085390;54;19981;-76
2022/06/06 01:38:39;;;;;;;;;;;;;;;17.10;77.58;99876.19;1084934;54;19947;-75
2022/06/06 01:39:43;;;;;;;;;;;;;;;17.12;77.72;99876.84;1084431;54;19954;-74
2022/06/06 01:40:48;;;;;;;;;;;;;;;17.06;78.06;99873.03;1084293;54;19953;-76
2022/06/06 01:41:54;;;;;;;;;;;;;;;17.08;77.92;99876.41;1084318;54;19947;-75
2022/06/06 01:42:58;;;;;;;;;;;;;;;17.00;78.42;99877.34;1084455;54;20445;-74
2022/06/06 01:44:08;;;;;;;;;;;;;;;16.97;78.54;99874.19;1085176;54;19950;-77
2022/06/06 01:45:13;;;;;;;;;;;;;;;16.89;78.94;99864.34;1087318;39;20396;-76
2022/06/06 01:46:20;;;;;;;;;;;;;;;16.95;78.55;99873.56;1086673;54;19950;-75
2022/06/06 01:47:28;;;;;;;;;;;;;;;16.92;78.75;99872.03;1086116;54;19946;-76
2022/06/06 01:48:32;;;;;;;;;;;;;;;16.87;79.15;99866.38;1086636;54;19962;-73
2022/06/06 01:49:36;;;;;;;;;;;;;;;16.83;79.30;99865.94;1087799;54;19943;-74
2022/06/06 01:50:38;;;;;;;;;;;;;;;16.80;79.37;99871.69;1087827;46;19942;-73
2022/06/06 01:51:42;;;;;;;;;;;;;;;16.76;79.57;99869.56;1087646;54;19955;-73
2022/06/06 01:52:51;;;;;;;;;;;;;;;16.81;79.69;99873.38;1087831;54;19942;-74
2022/06/06 01:53:55;;;;;;;;;;;;;;;16.75;79.81;99874.16;1087825;54;19942;-74
2022/06/06 01:54:57;;;;;;;;;;;;;;;16.73;79.49;99869.94;1088014;54;19949;-76
2022/06/06 01:57:04;;;;;;;;;;;;;;;16.73;79.46;99864.53;1086392;54;19958;-80
2022/06/06 01:58:07;;;;;;;;;;;;;;;16.69;80.01;99864.94;1086259;46;19966;-80
2022/06/06 01:59:14;;;;;;;;;;;;;;;16.70;79.84;99868.47;1087106;54;19947;-80
2022/06/06 02:00:18;;;;;;;;;;;;;;;16.66;80.19;99870.72;1087117;54;20516;-79
2022/06/06 02:01:19;;;;;;;;;;;;;;;16.60;80.41;99871.47;1086710;54;20747;-80
2022/06/06 02:02:23;;;;;;;;;;;;;;;16.60;80.48;99874.16;1086460;39;20333;-79
2022/06/06 02:03:25;;;;;;;;;;;;;;;16.66;80.53;99868.00;1086930;54;20540;-80
2022/06/06 02:04:29;;;;;;;;;;;;;;;16.70;79.84;99871.16;1087355;54;20604;-79
2022/06/06 02:05:30;;;;;;;;;;;;;;;16.76;79.47;99869.56;1087909;54;19962;-79
2022/06/06 02:06:34;;;;;;;;;;;;;;;16.71;79.89;99867.44;1087719;54;19942;-79
2022/06/06 02:07:36;;;;;;;;;;;;;;;16.66;80.07;99870.72;1087923;54;19943;-79
2022/06/06 02:08:42;;;;;;;;;;;;;;;16.64;80.39;99867.34;1090086;31;20480;-79
2022/06/06 02:09:46;;;;;;;;;;;;;;;16.65;80.42;99866.34;1087789;54;19958;-79
2022/06/06 02:10:47;;;;;;;;;;;;;;;16.60;80.69;99866.06;1088237;39;20424;-80
2022/06/06 02:11:51;;;;;;;;;;;;;;;16.65;80.67;99865.50;1088407;31;20504;-81
2022/06/06 02:12:53;;;;;;;;;;;;;;;16.56;81.18;99866.63;1087992;54;20489;-79
2022/06/06 02:13:57;;;;;;;;;;;;;;;16.56;81.14;99864.75;1087959;46;20519;-79
2022/06/06 02:15:01;;;;;;;;;;;;;;;16.56;80.93;99864.75;1087993;54;19986;-79
2022/06/06 02:16:05;;;;;;;;;;;;;;;16.55;80.94;99868.47;1087960;54;19957;-79
2022/06/06 02:17:07;;;;;;;;;;;;;;;16.62;80.52;99864.03;1087816;54;19958;-80
2022/06/06 02:18:11;;;;;;;;;;;;;;;16.65;80.78;99863.63;1087817;54;20435;-80
2022/06/06 02:19:13;;;;;;;;;;;;;;;16.71;80.27;99861.22;1087851;54;19959;-79
2022/06/06 02:20:18;;;;;;;;;;;;;;;16.75;80.13;99859.78;1087789;54;19930;-79
2022/06/06 02:21:20;;;;;;;;;;;;;;;16.75;80.06;99857.94;1087887;54;19950;-80
2022/06/06 02:22:24;;;;;;;;;;;;;;;16.75;79.93;99862.50;1088073;54;20500;-81
2022/06/06 02:23:26;;;;;;;;;;;;;;;16.81;79.55;99861.75;1087944;54;19951;-79
2022/06/06 02:24:30;;;;;;;;;;;;;;;16.85;79.36;99857.63;1088136;54;19943;-81
2022/06/06 02:25:33;;;;;;;;;;;;;;;16.86;79.65;99859.31;1087641;54;20410;-80
2022/06/06 02:26:37;;;;;;;;;;;;;;;16.84;79.29;99856.81;1087421;54;19957;-79
2022/06/06 02:27:38;;;;;;;;;;;;;;;16.82;79.61;99860.69;1086838;54;19947;-80
2022/06/06 02:28:42;;;;;;;;;;;;;;;16.82;79.37;99864.25;1088112;54;19942;-81
2022/06/06 02:29:43;;;;;;;;;;;;;;;16.90;78.96;99865.16;1087539;54;19951;-80
2022/06/06 02:30:50;;;;;;;;;;;;;;;16.86;79.34;99863.88;1087902;54;19946;-77
2022/06/06 02:31:51;;;;;;;;;;;;;;;16.83;79.33;99871.34;1087846;54;20562;-80
2022/06/06 02:32:55;;;;;;;;;;;;;;;16.76;79.82;99869.56;1088370;54;19935;-81
2022/06/06 02:33:56;;;;;;;;;;;;;;;16.73;79.91;99873.50;1091405;46;19942;-79
2022/06/06 02:34:59;;;;;;;;;;;;;;;16.74;79.92;99874.31;1089103;46;19934;-80
2022/06/06 02:36:01;;;;;;;;;;;;;;;16.76;79.67;99865.03;1089525;46;19923;-77
2022/06/06 02:37:04;;;;;;;;;;;;;;;16.76;79.60;99864.16;1088634;54;19938;-79
2022/06/06 02:38:08;;;;;;;;;;;;;;;16.65;79.93;99862.81;1092213;46;19947;-79
2022/06/06 02:39:12;;;;;;;;;;;;;;;16.72;79.89;99860.19;1088641;54;19958;-79
2022/06/06 02:40:15;;;;;;;;;;;;;;;16.70;79.66;99863.06;1088532;54;19930;-79
2022/06/06 02:41:19;;;;;;;;;;;;;;;16.62;80.08;99869.44;1088493;54;19939;-78
2022/06/06 02:42:21;;;;;;;;;;;;;;;16.60;80.44;99870.63;1088251;54;19947;-78
2022/06/06 02:43:25;;;;;;;;;;;;;;;16.63;80.08;99860.28;1087653;54;19953;-78
2022/06/06 02:44:29;;;;;;;;;;;;;;;16.69;79.85;99864.94;1087401;54;19953;-78
2022/06/06 02:45:30;;;;;;;;;;;;;;;16.76;79.48;99866.88;1087728;54;19954;-78
2022/06/06 02:46:37;;;;;;;;;;;;;;;16.76;79.51;99865.03;1087626;54;19982;-79
2022/06/06 02:47:38;;;;;;;;;;;;;;;16.74;79.13;99856.28;1087876;54;20028;-79
2022/06/06 02:48:42;;;;;;;;;;;;;;;16.78;79.38;99859.44;1087767;54;19927;-78
2022/06/06 02:49:43;;;;;;;;;;;;;;;16.77;79.04;99863.16;1087557;54;19976;-79
2022/06/06 02:50:47;;;;;;;;;;;;;;;16.74;79.35;99866.22;1087607;54;19950;-78
2022/06/06 02:51:48;;;;;;;;;;;;;;;16.65;79.62;99863.63;1087401;54;19981;-79
2022/06/06 02:52:52;;;;;;;;;;;;;;;16.64;79.95;99871.94;1087391;54;19942;-78
2022/06/06 02:53:55;;;;;;;;;;;;;;;16.61;79.84;99870.44;1087110;54;19946;-78
2022/06/06 02:54:57;;;;;;;;;;;;;;;16.64;80.01;99867.34;1088592;39;20368;-79
2022/06/06 02:56:01;;;;;;;;;;;;;;;16.63;80.11;99862.97;1087417;46;19970;-79
2022/06/06 02:57:03;;;;;;;;;;;;;;;16.55;80.26;99863.09;1087713;54;19977;-79
2022/06/06 02:58:07;;;;;;;;;;;;;;;16.52;80.53;99864.31;1087854;54;19949;-78
2022/06/06 02:59:08;;;;;;;;;;;;;;;16.56;80.40;99858.53;1087416;54;19951;-78
2022/06/06 03:00:13;;;;;;;;;;;;;;;16.57;80.23;99868.31;1087051;54;19947;-79
2022/06/06 03:01:17;;;;;;;;;;;;;;;16.55;80.00;99865.78;1087430;54;19946;-78
2022/06/06 03:02:21;;;;;;;;;;;;;;;16.52;80.51;99869.72;1087735;54;19943;-79
2022/06/06 03:03:25;;;;;;;;;;;;;;;16.51;80.63;99868.03;1087629;54;19954;-78
2022/06/06 03:04:27;;;;;;;;;;;;;;;16.49;80.62;99870.06;1087654;54;19951;-78
2022/06/06 03:05:37;;;;;;;;;;;;;;;16.47;80.57;99871.28;1088206;39;20582;-80
2022/06/06 03:06:43;;;;;;;;;;;;;;;16.47;80.77;99871.28;1087436;54;19950;-78
2022/06/06 03:08:05;;;;;;;;;;;;;;;16.46;80.68;99875.00;1087622;54;19939;-79
2022/06/06 03:09:13;;;;;;;;;;;;;;;16.44;80.85;99877.91;1092182;39;20397;-80
2022/06/06 03:10:20;;;;;;;;;;;;;;;16.49;80.63;99880.88;1087542;54;19977;-79
2022/06/06 03:11:27;;;;;;;;;;;;;;;16.57;80.28;99879.94;1087499;54;19942;-78
2022/06/06 03:12:37;;;;;;;;;;;;;;;16.61;80.10;99883.09;1087122;54;19943;-81
2022/06/06 03:13:53;;;;;;;;;;;;;;;16.65;80.12;99885.22;1088168;54;19938;-80
2022/06/06 03:15:04;;;;;;;;;;;;;;;16.72;79.80;99876.38;1088530;46;19923;-79
2022/06/06 03:20:49;;;;;;;;;;;;;;;16.82;79.22;99895.78;1088286;54;19954;-80
2022/06/06 03:21:56;;;;;;;;;;;;;;;16.85;78.80;99900.81;1088532;54;19927;-79
2022/06/06 03:23:08;;;;;;;;;;;;;;;16.84;79.13;99889.19;1092146;46;19946;-78
2022/06/06 03:24:16;;;;;;;;;;;;;;;16.84;79.11;99891.06;1091137;46;19970;-79
2022/06/06 03:25:23;;;;;;;;;;;;;;;16.83;78.69;99898.31;1088559;54;19938;-77
2022/06/06 03:26:29;;;;;;;;;;;;;;;16.79;78.85;99885.41;1090753;46;19934;-79
2022/06/06 03:27:39;;;;;;;;;;;;;;;16.82;78.98;99903.88;1089778;46;19942;-80
2022/06/06 03:28:48;;;;;;;;;;;;;;;16.85;78.69;99890.03;1088172;54;19942;-78
2022/06/06 03:30:01;;;;;;;;;;;;;;;16.73;79.62;99894.22;1088189;46;19942;-79
2022/06/06 03:31:11;;;;;;;;;;;;;;;16.74;79.33;99904.00;1087949;54;19947;-77
2022/06/06 03:32:20;;;;;;;;;;;;;;;16.82;79.16;99895.78;1087962;54;19927;-78
2022/06/06 03:33:29;;;;;;;;;;;;;;;16.79;79.09;99893.50;1087620;54;19990;-79
2022/06/06 03:34:36;;;;;;;;;;;;;;;16.77;79.09;99906.34;1087404;54;20524;-79
2022/06/06 03:35:40;;;;;;;;;;;;;;;16.82;79.07;99899.34;1087388;54;19947;-79
2022/06/06 03:36:47;;;;;;;;;;;;;;;16.82;79.21;99904.75;1087498;54;19962;-78
2022/06/06 03:37:56;;;;;;;;;;;;;;;16.67;79.52;99902.06;1086149;54;19981;-78
2022/06/06 03:39:05;;;;;;;;;;;;;;;16.77;79.24;99909.03;1085947;54;20584;-78
2022/06/06 03:40:12;;;;;;;;;;;;;;;16.64;79.44;99910.53;1085917;54;19955;-79
2022/06/06 03:41:20;;;;;;;;;;;;;;;16.66;79.78;99908.50;1087135;54;19954;-80
2022/06/06 03:42:24;;;;;;;;;;;;;;;16.75;79.51;99906.53;1088159;46;19943;-81
2022/06/06 03:43:33;;;;;;;;;;;;;;;16.73;79.27;99913.13;1090222;46;19938;-80
2022/06/06 03:44:44;;;;;;;;;;;;;;;16.81;79.19;99910.34;1089018;46;20038;-79
2022/06/06 03:45:56;;;;;;;;;;;;;;;16.80;78.99;99914.88;1088192;46;19939;-79
2022/06/06 03:47:03;;;;;;;;;;;;;;;16.87;78.92;99919.53;1088287;46;19951;-78
2022/06/06 03:48:10;;;;;;;;;;;;;;;16.87;78.78;99920.38;1091116;46;19950;-79
2022/06/06 03:49:22;;;;;;;;;;;;;;;16.90;78.60;99917.31;1088279;47;20248;-82
2022/06/06 03:50:32;;;;;;;;;;;;;;;16.89;78.54;99917.47;1089402;46;19966;-77
2022/06/06 03:51:36;;;;;;;;;;;;;;;16.86;78.72;99913.31;1088276;46;19949;-80
2022/06/06 03:52:45;;;;;;;;;;;;;;;16.81;78.81;99908.47;1088308;54;19926;-77
2022/06/06 03:53:50;;;;;;;;;;;;;;;16.74;79.08;99915.66;1088813;47;19953;-78
2022/06/06 03:55:00;;;;;;;;;;;;;;;16.74;79.37;99915.66;1088209;54;19938;-78
2022/06/06 03:56:09;;;;;;;;;;;;;;;16.78;78.91;99921.50;1088749;46;19922;-77
2022/06/06 03:57:15;;;;;;;;;;;;;;;16.81;78.99;99919.25;1088286;54;19949;-80
2022/06/06 03:58:17;;;;;;;;;;;;;;;16.82;78.78;99920.09;1088115;54;19953;-78
2022/06/06 03:59:22;;;;;;;;;;;;;;;16.84;79.08;99923.44;1088374;54;19945;-77
2022/06/06 04:00:27;;;;;;;;;;;;;;;16.88;78.53;99916.66;1088950;46;19990;-78
2022/06/06 04:01:30;;;;;;;;;;;;;;;16.92;78.56;99912.53;1089919;46;19970;-79
2022/06/06 04:02:35;;;;;;;;;;;;;;;16.94;78.34;99918.63;1089313;46;19962;-78
2022/06/06 04:03:37;;;;;;;;;;;;;;;16.95;78.31;99916.78;1086961;39;20381;-78
2022/06/06 04:04:44;;;;;;;;;;;;;;;16.97;78.31;99912.00;1085907;54;19969;-78
2022/06/06 04:05:45;;;;;;;;;;;;;;;16.94;78.12;99915.91;1086212;54;19947;-79
2022/06/06 04:06:50;;;;;;;;;;;;;;;16.97;78.18;99920.94;1086206;54;19950;-78
2022/06/06 04:07:51;;;;;;;;;;;;;;;16.98;78.07;99924.47;1086189;54;19962;-78
2022/06/06 04:08:55;;;;;;;;;;;;;;;16.97;78.37;99920.94;1085918;54;19950;-78
2022/06/06 04:09:56;;;;;;;;;;;;;;;16.99;78.20;99920.75;1086538;54;20802;-79
2022/06/06 04:11:06;;;;;;;;;;;;;;;17.00;78.41;99930.53;1086312;54;19947;-78
2022/06/06 04:12:17;;;;;;;;;;;;;;;17.04;78.14;99925.56;1086558;39;20360;-79
2022/06/06 04:13:32;;;;;;;;;;;;;;;17.08;78.01;99926.88;1087343;39;20419;-78
2022/06/06 04:14:41;;;;;;;;;;;;;;;17.07;78.28;99926.03;1086421;54;19957;-78
2022/06/06 04:15:51;;;;;;;;;;;;;;;17.01;78.33;99932.19;1086604;39;20728;-78
2022/06/06 04:16:59;;;;;;;;;;;;;;;17.00;78.09;99923.25;1086604;39;20186;-78
2022/06/06 04:18:12;;;;;;;;;;;;;;;16.97;78.64;99925.50;1085759;54;20444;-79
2022/06/06 04:19:20;;;;;;;;;;;;;;;16.99;78.30;99928.84;1086750;39;20392;-78
2022/06/06 04:20:33;;;;;;;;;;;;;;;17.02;78.40;99931.19;1086780;54;19950;-79
2022/06/06 04:21:47;;;;;;;;;;;;;;;16.97;78.42;99930.91;1087195;54;19954;-78
2022/06/06 04:22:58;;;;;;;;;;;;;;;16.94;78.63;99937.50;1087071;54;19962;-78
2022/06/06 04:24:18;;;;;;;;;;;;;;;16.96;78.56;99935.47;1086695;54;19946;-79
2022/06/06 04:25:27;;;;;;;;;;;;;;;16.96;78.68;99934.63;1086694;54;20068;-78
2022/06/06 04:26:39;;;;;;;;;;;;;;;16.92;78.79;99936.00;1086333;54;19947;-79
2022/06/06 04:27:50;;;;;;;;;;;;;;;16.89;79.06;99936.38;1086673;54;20448;-78
2022/06/06 04:28:57;;;;;;;;;;;;;;;16.89;78.99;99933.69;1087329;54;19975;-78
2022/06/06 04:30:03;;;;;;;;;;;;;;;16.94;78.90;99931.28;1087269;54;19939;-79
2022/06/06 04:31:12;;;;;;;;;;;;;;;16.97;78.51;99931.75;1087419;46;20042;-78
2022/06/06 04:32:20;;;;;;;;;;;;;;;17.04;78.78;99930.97;1087182;54;19969;-78
2022/06/06 04:33:25;;;;;;;;;;;;;;;17.04;78.29;99926.44;1087206;54;19950;-79
2022/06/06 04:34:32;;;;;;;;;;;;;;;17.05;78.52;99938.06;1087473;54;19951;-78
2022/06/06 04:35:46;;;;;;;;;;;;;;;17.02;78.71;99933.88;1087330;54;19942;-79
2022/06/06 04:36:54;;;;;;;;;;;;;;;16.94;78.77;99932.13;1086891;54;19953;-78
2022/06/06 04:37:59;;;;;;;;;;;;;;;16.93;79.24;99941.25;1085866;54;19950;-78
2022/06/06 04:39:06;;;;;;;;;;;;;;;16.96;79.03;99940.03;1085746;54;19974;-78
2022/06/06 04:40:12;;;;;;;;;;;;;;;17.03;78.52;99935.56;1085855;54;19946;-78
2022/06/06 04:41:20;;;;;;;;;;;;;;;17.02;79.00;99927.63;1086123;54;19946;-79
2022/06/06 04:42:27;;;;;;;;;;;;;;;17.04;78.35;99931.84;1085466;54;19947;-78
2022/06/06 04:43:37;;;;;;;;;;;;;;;17.08;78.55;99940.38;1085806;54;19953;-78
2022/06/06 04:44:44;;;;;;;;;;;;;;;17.16;78.16;99934.88;1085862;54;19946;-78
2022/06/06 04:45:49;;;;;;;;;;;;;;;17.16;78.12;99940.28;1086027;54;19947;-79
2022/06/06 04:46:56;;;;;;;;;;;;;;;17.06;78.47;99932.44;1087086;54;19946;-80
2022/06/06 04:47:58;;;;;;;;;;;;;;;17.03;78.75;99940.09;1088614;47;19942;-80
2022/06/06 04:49:03;;;;;;;;;;;;;;;17.05;78.93;99941.56;1087538;54;19990;-81
2022/06/06 04:50:05;;;;;;;;;;;;;;;17.03;78.92;99938.25;1087621;54;19958;-83
2022/06/06 04:51:13;;;;;;;;;;;;;;;17.06;79.14;99931.63;1087802;54;19946;-79
2022/06/06 04:52:15;;;;;;;;;;;;;;;17.15;78.44;99946.69;1087819;54;19946;-82
2022/06/06 04:53:21;;;;;;;;;;;;;;;17.23;78.36;99934.94;1087094;54;19951;-80
2022/06/06 04:54:26;;;;;;;;;;;;;;;17.27;77.99;99928.97;1089886;39;20554;-79
2022/06/06 04:55:30;;;;;;;;;;;;;;;17.34;77.91;99936.28;1087076;54;19935;-81
2022/06/06 04:56:35;;;;;;;;;;;;;;;17.36;77.44;99940.47;1087092;54;19961;-82
2022/06/06 04:57:37;;;;;;;;;;;;;;;17.41;77.62;99946.16;1087021;54;19946;-79
2022/06/06 04:58:41;;;;;;;;;;;;;;;17.42;76.95;99936.16;1086748;47;19954;-79
2022/06/06 04:59:43;;;;;;;;;;;;;;;17.46;77.07;99937.47;1086701;54;19947;-83
2022/06/06 05:00:47;;;;;;;;;;;;;;;17.49;76.98;99930.84;1088007;54;19938;-82
2022/06/06 05:01:51;;;;;;;;;;;;;;;17.54;76.87;99937.34;1087050;54;19950;-79
2022/06/06 05:02:52;;;;;;;;;;;;;;;17.57;76.49;99931.53;1086984;54;19953;-79
2022/06/06 05:03:56;;;;;;;;;;;;;;;17.58;76.59;99938.59;1087417;54;19954;-80
2022/06/06 05:04:57;;;;;;;;;;;;;;;17.57;76.74;99936.94;1087451;54;19946;-78
2022/06/06 05:06:10;;;;;;;;;;;;;;;17.68;76.56;99938.28;1087035;54;19967;-79
2022/06/06 05:07:31;;;;;;;;;;;;;;;17.72;76.15;99934.16;1086546;54;19946;-82
2022/06/06 05:08:42;;;;;;;;;;;;;;;17.77;75.57;99936.28;1086037;54;19999;-77
2022/06/06 05:09:53;;;;;;;;;;;;;;;17.75;75.48;99936.47;1086797;39;20352;-79
2022/06/06 05:11:17;;;;;;;;;;;;;;;17.70;75.72;99940.78;1085835;54;19946;-79
2022/06/06 05:12:25;;;;;;;;;;;;;;;17.80;75.39;99935.06;1086940;54;19938;-80
2022/06/06 05:13:41;;;;;;;;;;;;;;;17.84;74.94;99931.78;1086603;54;19930;-78
2022/06/06 05:14:57;;;;;;;;;;;;;;;17.81;75.18;99937.56;1086157;39;20727;-78
2022/06/06 05:16:10;;;;;;;;;;;;;;;17.90;74.96;99931.00;1085361;54;19958;-78
2022/06/06 05:17:22;;;;;;;;;;;;;;;17.96;74.76;99929.41;1086767;54;19938;-78
2022/06/06 05:18:32;;;;;;;;;;;;;;;17.99;74.65;99930.88;1085594;54;19946;-79
2022/06/06 05:19:51;;;;;;;;;;;;;;;18.00;74.55;99929.84;1085492;54;19973;-78
2022/06/06 05:21:02;;;;;;;;;;;;;;;17.90;74.96;99935.56;1085838;54;19973;-78
2022/06/06 05:22:11;;;;;;;;;;;;;;;17.92;74.94;99944.31;1086768;54;19951;-78
2022/06/06 05:23:25;;;;;;;;;;;;;;;17.93;75.40;99938.72;1087489;54;19981;-79
2022/06/06 05:24:42;;;;;;;;;;;;;;;17.91;75.24;99943.47;1087860;54;19934;-79
2022/06/06 05:26:59;;;;;;;;;;;;;;;18.07;74.70;99941.53;1085703;54;20854;-83
2022/06/06 05:28:11;;;;;;;;;;;;;;;18.09;74.52;99934.91;1087704;54;20543;-83
2022/06/06 05:29:27;;;;;;;;;;;;;;;18.10;74.48;99943.88;1087658;54;19990;-81
2022/06/06 05:30:35;;;;;;;;;;;;;;;18.16;74.25;99940.38;1087750;54;20623;-83
2022/06/06 05:31:42;;;;;;;;;;;;;;;18.22;74.28;99938.75;1087275;54;19954;-80
2022/06/06 05:32:54;;;;;;;;;;;;;;;18.27;74.07;99930.03;1086500;54;19939;-79
2022/06/06 05:34:01;;;;;;;;;;;;;;;18.34;73.76;99939.03;1085776;54;20515;-78
2022/06/06 05:35:07;;;;;;;;;;;;;;;18.31;73.78;99942.16;1086289;54;20422;-78
2022/06/06 05:36:25;;;;;;;;;;;;;;;18.26;73.91;99939.19;1086999;54;19956;-79
2022/06/06 05:37:31;;;;;;;;;;;;;;;18.34;73.30;99939.03;1086318;54;19947;-80
2022/06/06 05:38:46;;;;;;;;;;;;;;;18.22;73.32;99939.59;1085538;54;19972;-80
2022/06/06 05:40:07;;;;;;;;;;;;;;;18.22;73.28;99934.19;1086320;54;20751;-78
2022/06/06 05:41:19;;;;;;;;;;;;;;;18.38;73.15;99934.91;1087223;54;19970;-78
2022/06/06 05:42:27;;;;;;;;;;;;;;;18.46;72.96;99945.56;1087590;46;19942;-80
2022/06/06 05:43:40;;;;;;;;;;;;;;;18.52;72.90;99943.94;1087136;54;19951;-78
2022/06/06 05:44:48;;;;;;;;;;;;;;;18.57;72.43;99954.97;1087644;54;19947;-80
2022/06/06 05:46:00;;;;;;;;;;;;;;;18.54;72.06;99944.56;1087148;54;19951;-79
2022/06/06 05:47:08;;;;;;;;;;;;;;;18.64;72.14;99944.19;1087340;54;19946;-81
2022/06/06 05:48:24;;;;;;;;;;;;;;;18.70;72.12;99951.53;1087030;54;19947;-80
2022/06/06 05:49:33;;;;;;;;;;;;;;;18.72;71.89;99949.44;1087345;54;19947;-79
2022/06/06 05:50:39;;;;;;;;;;;;;;;18.76;71.72;99950.72;1086340;54;20032;-79
2022/06/06 05:51:57;;;;;;;;;;;;;;;18.80;72.10;99957.38;1087040;54;19943;-82
2022/06/06 05:53:17;;;;;;;;;;;;;;;18.81;71.64;99956.34;1086907;54;19951;-79
2022/06/06 05:54:27;;;;;;;;;;;;;;;18.80;71.59;99949.25;1086876;54;19958;-78
2022/06/06 05:55:40;;;;;;;;;;;;;;;18.80;71.95;99964.69;1087598;46;19946;-79
2022/06/06 05:56:56;;;;;;;;;;;;;;;18.86;71.47;99950.34;1086829;54;19942;-81
2022/06/06 05:58:20;;;;;;;;;;;;;;;18.89;71.00;99949.13;1086460;46;19950;-80